createdAt,value
2019-03-28T00:00:19.746Z,20.42
2019-03-28T00:02:46.442Z,20.43
2019-03-28T00:05:13.120Z,20.44
2019-03-28T00:07:39.766Z,20.36
2019-03-28T00:10:06.418Z,20.40
2019-03-28T00:12:33.104Z,20.37
2019-03-28T00:14:59.741Z,20.32
2019-03-28T00:17:26.397Z,20.35
2019-03-28T00:19:53.043Z,20.33
2019-03-28T00:22:19.729Z,20.23
2019-03-28T00:24:47.211Z,20.29
2019-03-28T00:27:13.042Z,20.28
2019-03-28T00:29:39.725Z,20.23
2019-03-28T00:32:06.408Z,20.21
2019-03-28T00:34:33.044Z,20.17
2019-03-28T00:36:59.721Z,20.23
2019-03-28T00:39:26.357Z,20.17
2019-03-28T00:41:52.995Z,20.15
2019-03-28T00:44:19.688Z,20.15
2019-03-28T00:46:46.367Z,20.15
2019-03-28T00:49:13.014Z,20.19
2019-03-28T00:51:39.711Z,20.12
2019-03-28T00:54:06.350Z,20.12
2019-03-28T00:56:43.646Z,20.11
2019-03-28T00:58:59.679Z,20.12
2019-03-28T01:01:26.324Z,20.06
2019-03-28T01:03:53.003Z,20.04
2019-03-28T01:06:19.643Z,20.00
2019-03-28T01:08:46.295Z,19.99
2019-03-28T01:11:12.935Z,20.00
2019-03-28T01:13:39.567Z,19.97
2019-03-28T01:16:06.243Z,19.96
2019-03-28T01:18:32.931Z,19.95
2019-03-28T01:20:59.612Z,19.92
2019-03-28T01:23:26.313Z,19.93
2019-03-28T01:25:53.275Z,19.91
2019-03-28T01:28:19.590Z,19.95
2019-03-28T01:30:46.271Z,19.87
2019-03-28T01:33:12.907Z,19.86
2019-03-28T01:35:39.596Z,19.86
2019-03-28T01:38:06.288Z,19.87
2019-03-28T01:40:33.143Z,19.86
2019-03-28T01:42:59.792Z,19.86
2019-03-28T01:45:29.485Z,19.90
2019-03-28T01:47:56.123Z,19.82
2019-03-28T01:50:22.755Z,19.80
2019-03-28T01:52:49.408Z,19.80
2019-03-28T01:55:16.043Z,19.79
2019-03-28T01:57:42.683Z,19.80
2019-03-28T02:00:09.364Z,19.80
2019-03-28T02:02:36.002Z,19.69
2019-03-28T02:05:02.659Z,19.77
2019-03-28T02:07:29.342Z,19.75
2019-03-28T02:09:56.029Z,19.70
2019-03-28T02:12:22.670Z,19.69
2019-03-28T02:14:50.627Z,19.60
2019-03-28T02:17:15.950Z,19.63
2019-03-28T02:19:42.654Z,19.65
2019-03-28T02:22:09.292Z,19.63
2019-03-28T02:24:35.932Z,19.65
2019-03-28T02:27:02.596Z,19.54
2019-03-28T02:29:29.251Z,19.63
2019-03-28T02:31:55.932Z,19.60
2019-03-28T02:34:22.571Z,19.57
2019-03-28T02:36:49.204Z,19.56
2019-03-28T02:39:15.893Z,19.54
2019-03-28T02:41:42.531Z,19.55
2019-03-28T02:44:09.217Z,19.56
2019-03-28T02:46:35.847Z,19.58
2019-03-28T02:49:02.499Z,19.51
2019-03-28T02:51:29.705Z,19.50
2019-03-28T02:53:55.826Z,19.48
2019-03-28T02:56:22.502Z,19.49
2019-03-28T02:58:49.141Z,19.42
2019-03-28T03:01:15.783Z,19.38
2019-03-28T03:03:42.543Z,19.42
2019-03-28T03:06:09.057Z,19.45
2019-03-28T03:08:35.743Z,19.40
2019-03-28T03:11:02.410Z,19.39
2019-03-28T03:13:29.017Z,19.39
2019-03-28T03:15:56.748Z,19.38
2019-03-28T03:18:22.365Z,19.37
2019-03-28T03:20:49.003Z,19.36
2019-03-28T03:23:15.646Z,19.34
2019-03-28T03:25:42.288Z,19.30
2019-03-28T03:28:08.968Z,19.31
2019-03-28T03:30:35.617Z,19.31
2019-03-28T03:33:02.257Z,19.29
2019-03-28T03:35:29.003Z,19.30
2019-03-28T03:37:56.021Z,19.30
2019-03-28T03:40:22.494Z,19.30
2019-03-28T03:42:49.294Z,19.27
2019-03-28T03:45:15.957Z,19.25
2019-03-28T03:47:42.603Z,19.24
2019-03-28T03:50:09.292Z,19.25
2019-03-28T03:52:35.928Z,19.23
2019-03-28T03:55:02.606Z,19.24
2019-03-28T03:57:29.247Z,19.22
2019-03-28T03:59:55.875Z,19.22
2019-03-28T04:02:22.558Z,19.17
2019-03-28T04:04:49.208Z,19.13
2019-03-28T04:07:15.844Z,19.22
2019-03-28T04:09:42.505Z,18.94
2019-03-28T04:12:09.141Z,18.81
2019-03-28T04:14:35.791Z,18.69
2019-03-28T04:17:02.420Z,18.72
2019-03-28T04:19:29.071Z,18.30
2019-03-28T04:21:55.753Z,18.24
2019-03-28T04:24:22.419Z,18.17
2019-03-28T04:26:49.068Z,18.14
2019-03-28T04:29:15.720Z,18.45
2019-03-28T04:31:42.392Z,18.66
2019-03-28T04:34:09.677Z,18.90
2019-03-28T04:36:35.696Z,19.14
2019-03-28T04:39:02.405Z,19.38
2019-03-28T04:41:29.035Z,19.55
2019-03-28T04:43:56.150Z,19.75
2019-03-28T04:46:22.369Z,19.96
2019-03-28T04:48:50.752Z,20.02
2019-03-28T04:51:15.636Z,20.12
2019-03-28T04:53:42.276Z,20.21
2019-03-28T04:56:08.925Z,20.35
2019-03-28T04:58:44.365Z,20.50
2019-03-28T05:01:02.230Z,20.61
2019-03-28T05:03:28.879Z,20.76
2019-03-28T05:05:55.522Z,20.88
2019-03-28T05:08:22.168Z,21.00
2019-03-28T05:10:48.799Z,21.33
2019-03-28T05:13:15.434Z,21.21
2019-03-28T05:15:42.102Z,21.39
2019-03-28T05:18:08.747Z,21.25
2019-03-28T05:20:35.400Z,21.15
2019-03-28T05:23:02.041Z,21.16
2019-03-28T05:25:28.747Z,21.32
2019-03-28T05:27:55.388Z,21.27
2019-03-28T05:30:22.039Z,21.27
2019-03-28T05:32:48.691Z,21.34
2019-03-28T05:35:15.387Z,21.38
2019-03-28T05:37:42.035Z,21.39
2019-03-28T05:40:08.665Z,21.58
2019-03-28T05:42:35.308Z,21.61
2019-03-28T05:45:01.950Z,21.53
2019-03-28T05:47:29.430Z,21.65
2019-03-28T05:49:55.240Z,21.84
2019-03-28T05:52:21.880Z,21.72
2019-03-28T05:54:48.523Z,21.77
2019-03-28T05:57:15.215Z,21.79
2019-03-28T05:59:41.846Z,21.84
2019-03-28T06:02:08.485Z,21.89
2019-03-28T06:04:35.137Z,21.99
2019-03-28T06:07:01.837Z,22.06
2019-03-28T06:09:28.484Z,22.13
2019-03-28T06:11:55.165Z,22.32
2019-03-28T06:14:21.807Z,22.21
2019-03-28T06:16:48.468Z,22.28
2019-03-28T06:19:15.114Z,22.39
2019-03-28T06:21:41.760Z,22.44
2019-03-28T06:24:08.411Z,22.45
2019-03-28T06:26:35.068Z,22.65
2019-03-28T06:29:01.713Z,22.67
2019-03-28T06:31:28.402Z,22.77
2019-03-28T06:33:55.051Z,22.87
2019-03-28T06:36:21.719Z,22.83
2019-03-28T06:38:48.400Z,22.77
2019-03-28T06:41:15.048Z,22.37
2019-03-28T06:43:42.129Z,22.12
2019-03-28T06:46:08.379Z,22.17
2019-03-28T06:48:35.020Z,22.50
2019-03-28T06:51:01.708Z,22.61
2019-03-28T06:53:28.368Z,22.72
2019-03-28T06:55:55.054Z,22.84
2019-03-28T06:58:21.708Z,23.02
2019-03-28T07:00:48.352Z,23.08
2019-03-28T07:03:15.077Z,23.34
2019-03-28T07:05:41.716Z,23.43
2019-03-28T07:08:08.359Z,23.37
2019-03-28T07:10:35.015Z,23.48
2019-03-28T07:13:01.717Z,23.59
2019-03-28T07:15:28.354Z,23.72
2019-03-28T07:17:55.028Z,23.67
2019-03-28T07:20:21.675Z,23.86
2019-03-28T07:22:48.312Z,23.96
2019-03-28T07:25:14.990Z,24.04
2019-03-28T07:27:41.671Z,23.98
2019-03-28T07:30:08.327Z,24.01
2019-03-28T07:32:35.011Z,24.05
2019-03-28T07:35:01.648Z,24.02
2019-03-28T07:37:28.377Z,24.10
2019-03-28T07:39:54.971Z,24.21
2019-03-28T07:42:21.673Z,24.15
2019-03-28T07:44:48.342Z,24.23
2019-03-28T07:47:15.082Z,24.34
2019-03-28T07:49:41.740Z,24.34
2019-03-28T07:52:08.393Z,24.35
2019-03-28T07:54:35.069Z,24.39
2019-03-28T07:57:01.722Z,24.55
2019-03-28T07:59:28.424Z,24.48
2019-03-28T08:01:55.072Z,24.57
2019-03-28T08:04:21.840Z,24.56
2019-03-28T08:06:50.051Z,24.57
2019-03-28T08:09:17.562Z,24.55
2019-03-28T08:11:41.901Z,24.68
2019-03-28T08:14:08.548Z,24.68
2019-03-28T08:16:35.241Z,24.66
2019-03-28T08:19:01.887Z,24.74
2019-03-28T08:21:28.562Z,24.62
2019-03-28T08:23:55.248Z,24.64
2019-03-28T08:26:21.885Z,24.57
2019-03-28T08:28:48.549Z,24.69
2019-03-28T08:31:15.240Z,24.62
2019-03-28T08:33:41.895Z,24.58
2019-03-28T08:36:08.581Z,24.47
2019-03-28T08:38:35.225Z,24.49
2019-03-28T08:41:01.914Z,24.53
2019-03-28T08:43:28.553Z,24.44
2019-03-28T08:45:55.214Z,24.48
2019-03-28T08:48:21.922Z,24.54
2019-03-28T08:50:48.626Z,24.37
2019-03-28T08:53:15.310Z,24.47
2019-03-28T08:55:42.000Z,24.46
2019-03-28T08:58:08.651Z,24.46
2019-03-28T09:00:50.925Z,24.49
2019-03-28T09:03:02.010Z,24.41
2019-03-28T09:05:28.643Z,24.46
2019-03-28T09:07:55.456Z,24.51
2019-03-28T09:10:22.287Z,24.59
2019-03-28T09:12:48.945Z,24.58
2019-03-28T09:15:15.658Z,24.69
2019-03-28T09:17:42.785Z,24.52
2019-03-28T09:20:09.436Z,24.42
2019-03-28T09:22:38.814Z,24.42
2019-03-28T09:25:02.945Z,24.69
2019-03-28T09:27:29.618Z,24.48
2019-03-28T09:29:56.247Z,24.41
2019-03-28T09:32:22.965Z,24.39
2019-03-28T09:34:50.729Z,24.42
2019-03-28T09:37:17.603Z,24.52
2019-03-28T09:39:44.258Z,24.61
2019-03-28T09:42:10.929Z,24.39
2019-03-28T09:44:37.585Z,24.42
2019-03-28T09:47:04.256Z,24.52
2019-03-28T09:49:30.995Z,24.47
2019-03-28T09:51:57.628Z,24.59
2019-03-28T09:54:24.270Z,24.51
2019-03-28T09:56:50.956Z,24.51
2019-03-28T09:59:17.664Z,24.49
2019-03-28T10:01:44.304Z,24.57
2019-03-28T10:04:10.999Z,24.51
2019-03-28T10:06:37.658Z,24.48
2019-03-28T10:09:04.357Z,24.53
2019-03-28T10:11:32.291Z,24.49
2019-03-28T10:13:57.670Z,24.56
2019-03-28T10:16:24.364Z,24.75
2019-03-28T10:18:51.016Z,24.66
2019-03-28T10:21:17.706Z,24.59
2019-03-28T10:23:44.607Z,24.59
2019-03-28T10:26:11.086Z,24.60
2019-03-28T10:28:37.762Z,24.54
2019-03-28T10:31:15.908Z,24.63
2019-03-28T10:33:31.059Z,24.67
2019-03-28T10:35:57.723Z,24.61
2019-03-28T10:38:24.434Z,24.72
2019-03-28T10:40:51.091Z,24.71
2019-03-28T10:43:17.896Z,24.80
2019-03-28T10:45:44.631Z,24.84
2019-03-28T10:48:11.268Z,24.91
2019-03-28T10:50:42.474Z,24.80
2019-03-28T10:53:06.670Z,24.80
2019-03-28T10:55:33.352Z,24.92
2019-03-28T10:58:00.030Z,24.97
2019-03-28T11:00:26.661Z,25.01
2019-03-28T11:02:53.457Z,24.99
2019-03-28T11:05:19.993Z,25.11
2019-03-28T11:07:46.666Z,25.05
2019-03-28T11:10:13.359Z,25.03
2019-03-28T11:12:40.211Z,25.19
2019-03-28T11:15:06.952Z,25.20
2019-03-28T11:17:33.585Z,25.34
2019-03-28T11:20:00.498Z,25.20
2019-03-28T11:22:27.073Z,25.26
2019-03-28T11:24:53.778Z,25.21
2019-03-28T11:27:20.427Z,25.32
2019-03-28T11:29:47.128Z,25.36
2019-03-28T11:32:13.820Z,25.37
2019-03-28T11:34:40.883Z,25.43
2019-03-28T11:37:11.353Z,25.45
2019-03-28T11:39:33.870Z,25.54
2019-03-28T11:42:00.598Z,25.45
2019-03-28T11:44:27.158Z,25.63
2019-03-28T11:46:53.953Z,25.74
2019-03-28T11:49:20.703Z,25.54
2019-03-28T11:51:47.357Z,25.54
2019-03-28T11:54:14.047Z,25.62
2019-03-28T11:56:40.734Z,25.60
2019-03-28T11:59:07.386Z,25.71
2019-03-28T12:01:34.055Z,25.73
2019-03-28T12:04:00.725Z,25.57
2019-03-28T12:06:27.394Z,25.69
2019-03-28T12:08:55.919Z,25.63
2019-03-28T12:11:20.809Z,25.57
2019-03-28T12:13:47.450Z,25.52
2019-03-28T12:16:14.096Z,25.58
2019-03-28T12:18:40.813Z,25.53
2019-03-28T12:21:07.440Z,25.52
2019-03-28T12:23:34.081Z,25.47
2019-03-28T12:26:00.745Z,25.55
2019-03-28T12:28:27.404Z,25.51
2019-03-28T12:30:54.043Z,25.47
2019-03-28T12:33:22.336Z,25.35
2019-03-28T12:35:48.994Z,25.50
2019-03-28T12:38:15.646Z,25.48
2019-03-28T12:40:42.303Z,25.47
2019-03-28T12:43:09.098Z,25.51
2019-03-28T12:45:35.638Z,25.60
2019-03-28T12:48:02.469Z,25.59
2019-03-28T12:50:29.120Z,25.63
2019-03-28T12:52:58.187Z,25.66
2019-03-28T12:55:22.416Z,25.67
2019-03-28T12:57:49.072Z,25.71
2019-03-28T13:00:15.770Z,25.66
2019-03-28T13:02:42.450Z,25.74
2019-03-28T13:05:09.096Z,25.73
2019-03-28T13:07:35.740Z,25.69
2019-03-28T13:10:02.433Z,25.69
2019-03-28T13:12:29.075Z,25.66
2019-03-28T13:14:55.751Z,25.64
2019-03-28T13:17:22.407Z,25.65
2019-03-28T13:19:49.217Z,25.63
2019-03-28T13:22:15.891Z,25.62
2019-03-28T13:24:42.541Z,25.57
2019-03-28T13:27:09.197Z,25.58
2019-03-28T13:29:35.874Z,25.49
2019-03-28T13:32:02.518Z,25.60
2019-03-28T13:34:29.162Z,25.53
2019-03-28T13:36:55.845Z,25.59
2019-03-28T13:39:22.497Z,25.54
2019-03-28T13:41:49.223Z,25.51
2019-03-28T13:44:15.870Z,25.67
2019-03-28T13:46:42.548Z,25.87
2019-03-28T13:49:09.330Z,25.84
2019-03-28T13:51:36.083Z,25.69
2019-03-28T13:54:02.719Z,25.66
2019-03-28T13:56:29.437Z,25.66
2019-03-28T13:58:56.109Z,25.73
2019-03-28T14:01:22.826Z,25.60
2019-03-28T14:03:49.420Z,25.47
2019-03-28T14:06:16.161Z,25.62
2019-03-28T14:08:42.808Z,25.59
2019-03-28T14:11:09.467Z,25.55
2019-03-28T14:13:36.203Z,25.49
2019-03-28T14:16:02.837Z,25.53
2019-03-28T14:18:29.509Z,25.53
2019-03-28T14:20:56.217Z,25.47
2019-03-28T14:23:22.880Z,25.49
2019-03-28T14:25:49.524Z,25.61
2019-03-28T14:28:19.406Z,25.43
2019-03-28T14:30:46.073Z,25.44
2019-03-28T14:33:15.754Z,25.44
2019-03-28T14:35:39.834Z,25.51
2019-03-28T14:38:06.470Z,25.61
2019-03-28T14:40:33.272Z,25.35
2019-03-28T14:42:59.883Z,25.14
2019-03-28T14:45:26.536Z,24.71
2019-03-28T14:47:53.218Z,24.71
2019-03-28T14:50:19.966Z,24.85
2019-03-28T14:52:46.570Z,24.92
2019-03-28T14:55:13.280Z,25.13
2019-03-28T14:57:39.974Z,25.05
2019-03-28T15:00:06.639Z,25.02
2019-03-28T15:02:33.328Z,25.02
2019-03-28T15:05:00.000Z,25.00
2019-03-28T15:07:26.647Z,24.97
2019-03-28T15:09:53.381Z,24.87
2019-03-28T15:12:20.025Z,24.96
2019-03-28T15:14:46.733Z,25.00
2019-03-28T15:17:13.404Z,25.01
2019-03-28T15:19:40.058Z,24.92
2019-03-28T15:22:06.712Z,25.02
2019-03-28T15:24:33.418Z,24.98
2019-03-28T15:27:00.183Z,25.05
2019-03-28T15:29:26.844Z,24.99
2019-03-28T15:31:53.525Z,24.95
2019-03-28T15:34:20.208Z,24.96
2019-03-28T15:36:47.370Z,25.00
2019-03-28T15:39:16.869Z,24.97
2019-03-28T15:41:43.618Z,25.00
2019-03-28T15:44:10.256Z,25.08
2019-03-28T15:46:36.935Z,25.00
2019-03-28T15:49:03.583Z,24.93
2019-03-28T15:51:30.231Z,24.97
2019-03-28T15:53:56.917Z,24.96
2019-03-28T15:56:23.562Z,25.02
2019-03-28T15:58:50.256Z,25.05
2019-03-28T16:01:16.908Z,25.07
2019-03-28T16:03:52.790Z,25.05
2019-03-28T16:06:10.262Z,24.94
2019-03-28T16:08:36.900Z,24.90
2019-03-28T16:11:03.553Z,24.92
2019-03-28T16:13:30.517Z,24.95
2019-03-28T16:15:57.158Z,24.93
2019-03-28T16:18:23.795Z,24.94
2019-03-28T16:20:53.342Z,24.86
2019-03-28T16:23:17.121Z,24.88
2019-03-28T16:25:43.769Z,24.82
2019-03-28T16:28:10.433Z,24.76
2019-03-28T16:30:37.090Z,24.90
2019-03-28T16:33:03.742Z,24.91
2019-03-28T16:35:30.425Z,24.84
2019-03-28T16:37:57.059Z,24.76
2019-03-28T16:40:23.696Z,24.84
2019-03-28T16:42:50.345Z,24.75
2019-03-28T16:45:16.989Z,24.71
2019-03-28T16:47:43.648Z,24.67
2019-03-28T16:50:10.286Z,24.65
2019-03-28T16:52:37.027Z,24.77
2019-03-28T16:55:03.663Z,24.76
2019-03-28T16:57:30.804Z,24.74
2019-03-28T16:59:57.445Z,24.73
2019-03-28T17:02:24.152Z,24.68
2019-03-28T17:04:50.805Z,24.71
2019-03-28T17:07:17.487Z,24.68
2019-03-28T17:09:44.129Z,24.66
2019-03-28T17:12:10.845Z,24.63
2019-03-28T17:14:37.494Z,24.63
2019-03-28T17:17:04.185Z,24.66
2019-03-28T17:19:30.828Z,24.56
2019-03-28T17:21:57.521Z,24.51
2019-03-28T17:24:24.156Z,24.52
2019-03-28T17:26:50.794Z,24.51
2019-03-28T17:29:17.485Z,24.49
2019-03-28T17:31:44.969Z,24.45
2019-03-28T17:34:10.773Z,24.46
2019-03-28T17:36:37.410Z,24.45
2019-03-28T17:39:04.069Z,24.43
2019-03-28T17:41:31.774Z,24.44
2019-03-28T17:43:57.428Z,24.40
2019-03-28T17:46:24.068Z,24.55
2019-03-28T17:48:50.715Z,24.40
2019-03-28T17:51:17.443Z,24.36
2019-03-28T17:53:44.162Z,24.34
2019-03-28T17:56:10.846Z,24.34
2019-03-28T17:58:37.502Z,24.35
2019-03-28T18:01:04.147Z,24.33
2019-03-28T18:03:31.760Z,24.34
2019-03-28T18:05:58.719Z,24.32
2019-03-28T18:08:24.098Z,24.31
2019-03-28T18:10:50.754Z,24.28
2019-03-28T18:13:17.409Z,24.30
2019-03-28T18:15:44.045Z,24.27
2019-03-28T18:18:12.026Z,24.28
2019-03-28T18:20:37.446Z,24.26
2019-03-28T18:23:04.093Z,24.24
2019-03-28T18:25:30.738Z,24.22
2019-03-28T18:27:57.431Z,24.20
2019-03-28T18:30:24.082Z,24.21
2019-03-28T18:32:50.772Z,24.19
2019-03-28T18:35:17.435Z,24.19
2019-03-28T18:37:44.763Z,24.19
2019-03-28T18:40:10.750Z,24.18
2019-03-28T18:42:37.392Z,24.23
2019-03-28T18:45:04.034Z,24.16
2019-03-28T18:47:30.673Z,24.15
2019-03-28T18:49:57.376Z,24.18
2019-03-28T18:52:24.024Z,24.17
2019-03-28T18:54:50.683Z,24.19
2019-03-28T18:57:19.748Z,24.17
2019-03-28T18:59:43.995Z,24.19
2019-03-28T19:02:10.649Z,24.16
2019-03-28T19:04:37.336Z,24.17
2019-03-28T19:07:03.973Z,24.14
2019-03-28T19:09:30.606Z,24.16
2019-03-28T19:11:57.282Z,24.12
2019-03-28T19:14:23.913Z,24.13
2019-03-28T19:16:52.221Z,24.11
2019-03-28T19:19:17.793Z,24.10
2019-03-28T19:21:43.855Z,24.11
2019-03-28T19:24:10.508Z,24.08
2019-03-28T19:26:37.145Z,24.23
2019-03-28T19:29:03.804Z,24.08
2019-03-28T19:31:30.653Z,24.07
2019-03-28T19:33:57.096Z,24.14
2019-03-28T19:36:23.746Z,24.01
2019-03-28T19:38:50.397Z,23.97
2019-03-28T19:41:17.052Z,23.97
2019-03-28T19:43:43.701Z,23.99
2019-03-28T19:46:10.354Z,24.01
2019-03-28T19:48:37.014Z,24.03
2019-03-28T19:51:03.655Z,24.06
2019-03-28T19:53:30.305Z,24.05
2019-03-28T19:55:56.952Z,24.07
2019-03-28T19:58:23.588Z,24.06
2019-03-28T20:00:50.237Z,24.05
2019-03-28T20:03:16.892Z,24.10
2019-03-28T20:05:48.009Z,24.04
2019-03-28T20:08:16.052Z,24.07
2019-03-28T20:10:36.856Z,24.05
2019-03-28T20:13:05.201Z,24.05
2019-03-28T20:15:30.140Z,24.04
2019-03-28T20:17:56.788Z,24.03
2019-03-28T20:20:23.448Z,24.02
2019-03-28T20:22:50.169Z,24.01
2019-03-28T20:25:16.820Z,24.01
2019-03-28T20:27:43.467Z,24.01
2019-03-28T20:30:10.103Z,24.02
2019-03-28T20:32:37.848Z,24.01
2019-03-28T20:35:03.491Z,23.97
2019-03-28T20:37:30.129Z,24.00
2019-03-28T20:39:56.779Z,23.99
2019-03-28T20:42:23.426Z,23.98
2019-03-28T20:44:50.090Z,23.95
2019-03-28T20:47:16.727Z,23.94
2019-03-28T20:49:46.466Z,23.93
2019-03-28T20:52:10.079Z,23.93
2019-03-28T20:54:36.661Z,23.95
2019-03-28T20:57:03.301Z,23.93
2019-03-28T20:59:29.941Z,23.96
2019-03-28T21:01:57.704Z,23.91
2019-03-28T21:04:31.145Z,23.96
2019-03-28T21:06:49.952Z,23.92
2019-03-28T21:09:16.623Z,23.92
2019-03-28T21:11:43.257Z,23.88
2019-03-28T21:14:09.909Z,23.86
2019-03-28T21:16:38.072Z,23.83
2019-03-28T21:19:03.198Z,23.90
2019-03-28T21:21:29.961Z,23.83
2019-03-28T21:23:56.608Z,23.88
2019-03-28T21:26:23.246Z,23.84
2019-03-28T21:28:50.778Z,23.87
2019-03-28T21:31:16.583Z,23.83
2019-03-28T21:33:43.228Z,23.82
2019-03-28T21:36:09.866Z,23.81
2019-03-28T21:38:36.530Z,23.82
2019-03-28T21:41:03.168Z,23.79
2019-03-28T21:43:30.828Z,23.81
2019-03-28T21:45:56.457Z,23.81
2019-03-28T21:48:23.096Z,23.77
2019-03-28T21:50:49.743Z,23.79
2019-03-28T21:53:16.389Z,23.78
2019-03-28T21:55:54.281Z,23.75
2019-03-28T21:58:09.712Z,23.75
2019-03-28T22:00:36.404Z,23.74
2019-03-28T22:03:03.043Z,23.74
2019-03-28T22:05:30.777Z,23.72
2019-03-28T22:07:56.322Z,23.69
2019-03-28T22:10:22.971Z,23.68
2019-03-28T22:12:49.609Z,23.68
2019-03-28T22:15:16.241Z,23.68
2019-03-28T22:17:42.892Z,23.67
2019-03-28T22:20:09.536Z,23.70
2019-03-28T22:22:36.175Z,23.66
2019-03-28T22:25:02.819Z,23.66
2019-03-28T22:27:29.457Z,23.66
2019-03-28T22:29:56.096Z,23.65
2019-03-28T22:32:23.151Z,23.66
2019-03-28T22:34:49.364Z,23.67
2019-03-28T22:37:15.999Z,23.63
2019-03-28T22:39:42.639Z,23.62
2019-03-28T22:42:09.287Z,23.49
2019-03-28T22:44:35.981Z,23.33
2019-03-28T22:47:02.590Z,23.03
2019-03-28T22:49:29.235Z,22.85
2019-03-28T22:51:55.889Z,22.77
2019-03-28T22:54:22.526Z,22.98
2019-03-28T22:56:49.926Z,23.11
2019-03-28T22:59:15.833Z,23.19
2019-03-28T23:01:42.496Z,23.27
2019-03-28T23:04:09.157Z,23.33
2019-03-28T23:06:35.801Z,23.36
2019-03-28T23:09:02.487Z,23.42
2019-03-28T23:11:29.087Z,23.41
2019-03-28T23:13:55.765Z,23.44
2019-03-28T23:16:22.401Z,23.44
2019-03-28T23:18:49.039Z,23.45
2019-03-28T23:21:15.938Z,23.45
2019-03-28T23:23:42.370Z,23.48
2019-03-28T23:26:09.047Z,23.46
2019-03-28T23:28:35.704Z,23.46
2019-03-28T23:31:02.349Z,23.48
2019-03-28T23:33:28.993Z,23.47
2019-03-28T23:35:55.638Z,23.46
2019-03-28T23:38:22.273Z,23.49
2019-03-28T23:40:48.919Z,23.47
2019-03-28T23:43:15.564Z,23.50
2019-03-28T23:45:42.198Z,23.49
2019-03-28T23:48:08.844Z,23.49
2019-03-28T23:50:35.493Z,23.52
2019-03-28T23:53:02.130Z,23.49
2019-03-28T23:55:28.811Z,23.51
2019-03-28T23:57:55.456Z,23.47
